sensor_id;sensor_type;location;lat;lon;timestamp;pressure;altitude;pressure_sealevel;temperature;humidity
37904;BME280;23738;50.422;18.758;2023-04-02T00:00:16;97424.89;;;9.19;84.17
37904;BME280;23738;50.422;18.758;2023-04-02T00:02:59;97430.10;;;9.20;84.20
37904;BME280;23738;50.422;18.758;2023-04-02T00:05:42;97434.20;;;9.20;84.22
37904;BME280;23738;50.422;18.758;2023-04-02T00:08:21;97437.67;;;9.17;84.17
37904;BME280;23738;50.422;18.758;2023-04-02T00:10:51;97439.82;;;9.13;84.30
37904;BME280;23738;50.422;18.758;2023-04-02T00:13:24;97443.02;;;9.14;84.35
37904;BME280;23738;50.422;18.758;2023-04-02T00:15:57;97440.30;;;9.14;84.28
37904;BME280;23738;50.422;18.758;2023-04-02T00:18:25;97440.27;;;9.17;84.37
37904;BME280;23738;50.422;18.758;2023-04-02T00:21:06;97439.88;;;9.18;84.31
37904;BME280;23738;50.422;18.758;2023-04-02T00:23:36;97445.07;;;9.15;84.26
37904;BME280;23738;50.422;18.758;2023-04-02T00:26:07;97442.95;;;9.12;84.35
37904;BME280;23738;50.422;18.758;2023-04-02T00:28:47;97442.27;;;9.11;84.46
37904;BME280;23738;50.422;18.758;2023-04-02T00:31:16;97443.00;;;9.08;84.31
37904;BME280;23738;50.422;18.758;2023-04-02T00:33:45;97446.16;;;9.07;84.39
37904;BME280;23738;50.422;18.758;2023-04-02T00:36:14;97443.01;;;9.10;84.55
37904;BME280;23738;50.422;18.758;2023-04-02T00:38:45;97440.77;;;9.11;84.54
37904;BME280;23738;50.422;18.758;2023-04-02T00:41:15;97445.02;;;9.12;84.59
37904;BME280;23738;50.422;18.758;2023-04-02T00:43:46;97447.44;;;9.12;84.69
37904;BME280;23738;50.422;18.758;2023-04-02T00:46:18;97445.55;;;9.12;84.61
37904;BME280;23738;50.422;18.758;2023-04-02T00:48:53;97447.89;;;9.13;84.60
37904;BME280;23738;50.422;18.758;2023-04-02T00:51:25;97451.30;;;9.11;84.63
37904;BME280;23738;50.422;18.758;2023-04-02T00:53:56;97452.64;;;9.10;84.67
37904;BME280;23738;50.422;18.758;2023-04-02T00:56:29;97452.33;;;9.10;84.76
37904;BME280;23738;50.422;18.758;2023-04-02T00:58:58;97449.37;;;9.06;84.71
37904;BME280;23738;50.422;18.758;2023-04-02T01:01:28;97453.61;;;9.09;84.90
37904;BME280;23738;50.422;18.758;2023-04-02T01:04:00;97456.98;;;9.08;84.85
37904;BME280;23738;50.422;18.758;2023-04-02T01:06:30;97458.94;;;9.09;84.84
37904;BME280;23738;50.422;18.758;2023-04-02T01:09:10;97459.36;;;9.11;84.85
37904;BME280;23738;50.422;18.758;2023-04-02T01:12:08;97463.92;;;9.15;84.92
37904;BME280;23738;50.422;18.758;2023-04-02T01:14:47;97463.24;;;9.15;84.89
37904;BME280;23738;50.422;18.758;2023-04-02T01:17:27;97462.04;;;9.11;84.94
37904;BME280;23738;50.422;18.758;2023-04-02T01:20:18;97458.77;;;9.07;84.92
37904;BME280;23738;50.422;18.758;2023-04-02T01:22:53;97459.63;;;9.06;84.93
37904;BME280;23738;50.422;18.758;2023-04-02T01:25:27;97459.27;;;9.07;84.97
37904;BME280;23738;50.422;18.758;2023-04-02T01:28:04;97454.09;;;9.05;85.09
37904;BME280;23738;50.422;18.758;2023-04-02T01:30:35;97461.14;;;9.09;85.04
37904;BME280;23738;50.422;18.758;2023-04-02T01:33:04;97462.17;;;9.08;85.16
37904;BME280;23738;50.422;18.758;2023-04-02T01:35:36;97461.29;;;9.05;85.10
37904;BME280;23738;50.422;18.758;2023-04-02T01:38:10;97460.32;;;9.01;85.07
37904;BME280;23738;50.422;18.758;2023-04-02T01:40:44;97459.48;;;9.01;85.15
37904;BME280;23738;50.422;18.758;2023-04-02T01:43:17;97458.45;;;9.00;85.21
37904;BME280;23738;50.422;18.758;2023-04-02T01:45:46;97464.98;;;9.04;85.46
37904;BME280;23738;50.422;18.758;2023-04-02T01:48:15;97462.79;;;9.06;85.29
37904;BME280;23738;50.422;18.758;2023-04-02T01:50:44;97466.92;;;9.02;85.31
37904;BME280;23738;50.422;18.758;2023-04-02T01:53:15;97468.89;;;8.97;85.27
37904;BME280;23738;50.422;18.758;2023-04-02T01:55:45;97471.89;;;8.97;85.34
37904;BME280;23738;50.422;18.758;2023-04-02T01:58:17;97478.98;;;8.98;85.38
37904;BME280;23738;50.422;18.758;2023-04-02T02:00:50;97476.39;;;9.01;85.60
37904;BME280;23738;50.422;18.758;2023-04-02T02:03:19;97485.23;;;9.01;85.55
37904;BME280;23738;50.422;18.758;2023-04-02T02:05:47;97484.93;;;8.99;85.52
37904;BME280;23738;50.422;18.758;2023-04-02T02:08:24;97489.55;;;9.00;85.59
37904;BME280;23738;50.422;18.758;2023-04-02T02:10:53;97484.31;;;9.04;85.66
37904;BME280;23738;50.422;18.758;2023-04-02T02:13:22;97491.64;;;9.05;85.60
37904;BME280;23738;50.422;18.758;2023-04-02T02:15:49;97494.45;;;9.03;85.58
37904;BME280;23738;50.422;18.758;2023-04-02T02:18:20;97497.52;;;9.03;85.66
37904;BME280;23738;50.422;18.758;2023-04-02T02:20:49;97497.61;;;8.99;85.55
37904;BME280;23738;50.422;18.758;2023-04-02T02:23:17;97502.70;;;8.91;85.34
37904;BME280;23738;50.422;18.758;2023-04-02T02:25:46;97501.10;;;8.87;85.50
37904;BME280;23738;50.422;18.758;2023-04-02T02:28:16;97500.92;;;8.85;85.44
37904;BME280;23738;50.422;18.758;2023-04-02T02:30:46;97502.42;;;8.85;85.60
37904;BME280;23738;50.422;18.758;2023-04-02T02:33:18;97502.20;;;8.83;85.57
37904;BME280;23738;50.422;18.758;2023-04-02T02:35:52;97506.00;;;8.80;85.66
37904;BME280;23738;50.422;18.758;2023-04-02T02:38:30;97504.70;;;8.80;85.89
37904;BME280;23738;50.422;18.758;2023-04-02T02:41:05;97506.73;;;8.79;85.78
37904;BME280;23738;50.422;18.758;2023-04-02T02:43:34;97505.99;;;8.77;85.63
37904;BME280;23738;50.422;18.758;2023-04-02T02:46:06;97512.36;;;8.77;85.71
37904;BME280;23738;50.422;18.758;2023-04-02T02:48:37;97516.09;;;8.79;85.81
37904;BME280;23738;50.422;18.758;2023-04-02T02:51:11;97515.11;;;8.81;85.75
37904;BME280;23738;50.422;18.758;2023-04-02T02:53:47;97516.13;;;8.80;85.71
37904;BME280;23738;50.422;18.758;2023-04-02T02:56:16;97519.12;;;8.77;85.76
37904;BME280;23738;50.422;18.758;2023-04-02T02:58:45;97521.31;;;8.74;85.76
37904;BME280;23738;50.422;18.758;2023-04-02T03:01:12;97524.40;;;8.74;85.74
37904;BME280;23738;50.422;18.758;2023-04-02T03:03:39;97525.66;;;8.75;85.80
37904;BME280;23738;50.422;18.758;2023-04-02T03:06:09;97527.73;;;8.77;85.91
37904;BME280;23738;50.422;18.758;2023-04-02T03:08:45;97524.31;;;8.80;85.90
37904;BME280;23738;50.422;18.758;2023-04-02T03:11:17;97530.02;;;8.82;85.99
37904;BME280;23738;50.422;18.758;2023-04-02T03:13:48;97526.90;;;8.81;86.08
37904;BME280;23738;50.422;18.758;2023-04-02T03:16:19;97530.39;;;8.79;85.96
37904;BME280;23738;50.422;18.758;2023-04-02T03:18:52;97528.11;;;8.77;85.80
37904;BME280;23738;50.422;18.758;2023-04-02T03:21:26;97533.52;;;8.76;85.79
37904;BME280;23738;50.422;18.758;2023-04-02T03:24:00;97534.23;;;8.77;85.86
37904;BME280;23738;50.422;18.758;2023-04-02T03:26:31;97537.70;;;8.74;85.74
37904;BME280;23738;50.422;18.758;2023-04-02T03:29:04;97539.27;;;8.72;85.86
37904;BME280;23738;50.422;18.758;2023-04-02T03:31:36;97538.22;;;8.66;85.86
37904;BME280;23738;50.422;18.758;2023-04-02T03:34:09;97543.31;;;8.61;85.75
37904;BME280;23738;50.422;18.758;2023-04-02T03:36:45;97546.06;;;8.62;85.97
37904;BME280;23738;50.422;18.758;2023-04-02T03:39:19;97545.23;;;8.64;85.98
37904;BME280;23738;50.422;18.758;2023-04-02T03:41:51;97545.45;;;8.61;86.04
37904;BME280;23738;50.422;18.758;2023-04-02T03:44:25;97547.34;;;8.58;85.93
37904;BME280;23738;50.422;18.758;2023-04-02T03:46:57;97557.09;;;8.52;85.80
37904;BME280;23738;50.422;18.758;2023-04-02T03:49:32;97556.89;;;8.48;85.71
37904;BME280;23738;50.422;18.758;2023-04-02T03:52:05;97563.73;;;8.44;86.04
37904;BME280;23738;50.422;18.758;2023-04-02T03:54:35;97565.92;;;8.46;85.99
37904;BME280;23738;50.422;18.758;2023-04-02T03:57:04;97567.14;;;8.48;86.07
37904;BME280;23738;50.422;18.758;2023-04-02T03:59:38;97572.43;;;8.45;86.03
37904;BME280;23738;50.422;18.758;2023-04-02T04:02:18;97574.74;;;8.40;85.95
37904;BME280;23738;50.422;18.758;2023-04-02T04:04:49;97579.39;;;8.36;85.93
37904;BME280;23738;50.422;18.758;2023-04-02T04:07:21;97583.66;;;8.36;86.12
37904;BME280;23738;50.422;18.758;2023-04-02T04:09:54;97586.88;;;8.34;85.96
37904;BME280;23738;50.422;18.758;2023-04-02T04:12:30;97589.42;;;8.29;85.87
37904;BME280;23738;50.422;18.758;2023-04-02T04:15:01;97593.27;;;8.28;86.08
37904;BME280;23738;50.422;18.758;2023-04-02T04:17:35;97595.58;;;8.24;86.00
37904;BME280;23738;50.422;18.758;2023-04-02T04:20:20;97599.44;;;8.16;85.89
37904;BME280;23738;50.422;18.758;2023-04-02T04:22:50;97600.67;;;8.07;85.80
37904;BME280;23738;50.422;18.758;2023-04-02T04:25:25;97608.90;;;8.03;85.80
37904;BME280;23738;50.422;18.758;2023-04-02T04:28:05;97610.73;;;7.94;85.79
37904;BME280;23738;50.422;18.758;2023-04-02T04:30:42;97612.64;;;7.82;85.74
37904;BME280;23738;50.422;18.758;2023-04-02T04:33:16;97618.48;;;7.68;85.62
37904;BME280;23738;50.422;18.758;2023-04-02T04:35:50;97627.14;;;7.57;85.78
37904;BME280;23738;50.422;18.758;2023-04-02T04:38:27;97631.14;;;7.53;85.95
37904;BME280;23738;50.422;18.758;2023-04-02T04:41:02;97634.99;;;7.55;86.08
37904;BME280;23738;50.422;18.758;2023-04-02T04:43:36;97634.09;;;7.54;85.88
37904;BME280;23738;50.422;18.758;2023-04-02T04:46:09;97638.13;;;7.47;85.94
37904;BME280;23738;50.422;18.758;2023-04-02T04:48:45;97644.70;;;7.33;86.07
37904;BME280;23738;50.422;18.758;2023-04-02T04:51:19;97649.10;;;7.20;85.73
37904;BME280;23738;50.422;18.758;2023-04-02T04:53:49;97655.77;;;7.10;85.53
37904;BME280;23738;50.422;18.758;2023-04-02T04:56:19;97657.77;;;7.03;85.88
37904;BME280;23738;50.422;18.758;2023-04-02T04:58:51;97663.97;;;6.96;86.11
37904;BME280;23738;50.422;18.758;2023-04-02T05:01:23;97669.11;;;6.84;86.13
37904;BME280;23738;50.422;18.758;2023-04-02T05:03:56;97670.13;;;6.75;86.04
37904;BME280;23738;50.422;18.758;2023-04-02T05:06:34;97675.48;;;6.73;86.06
37904;BME280;23738;50.422;18.758;2023-04-02T05:09:09;97679.92;;;6.74;86.16
37904;BME280;23738;50.422;18.758;2023-04-02T05:11:42;97685.68;;;6.70;86.16
37904;BME280;23738;50.422;18.758;2023-04-02T05:14:19;97692.45;;;6.58;85.77
37904;BME280;23738;50.422;18.758;2023-04-02T05:16:52;97702.93;;;6.48;85.98
37904;BME280;23738;50.422;18.758;2023-04-02T05:19:26;97708.13;;;6.39;86.07
37904;BME280;23738;50.422;18.758;2023-04-02T05:21:58;97708.19;;;6.25;85.83
37904;BME280;23738;50.422;18.758;2023-04-02T05:24:36;97719.95;;;6.21;85.84
37904;BME280;23738;50.422;18.758;2023-04-02T05:27:14;97725.29;;;6.11;85.99
37904;BME280;23738;50.422;18.758;2023-04-02T05:29:47;97726.77;;;6.03;86.11
37904;BME280;23738;50.422;18.758;2023-04-02T05:32:21;97732.66;;;6.00;85.94
37904;BME280;23738;50.422;18.758;2023-04-02T05:34:53;97732.23;;;5.93;85.96
37904;BME280;23738;50.422;18.758;2023-04-02T05:37:24;97743.92;;;5.89;86.20
37904;BME280;23738;50.422;18.758;2023-04-02T05:39:54;97743.96;;;5.88;86.42
37904;BME280;23738;50.422;18.758;2023-04-02T05:42:24;97748.87;;;5.85;86.39
37904;BME280;23738;50.422;18.758;2023-04-02T05:45:03;97750.64;;;5.79;86.40
37904;BME280;23738;50.422;18.758;2023-04-02T05:47:34;97757.06;;;5.72;86.19
37904;BME280;23738;50.422;18.758;2023-04-02T05:50:22;97764.31;;;5.63;86.09
37904;BME280;23738;50.422;18.758;2023-04-02T05:52:56;97760.56;;;5.51;86.16
37904;BME280;23738;50.422;18.758;2023-04-02T05:55:38;97769.09;;;5.45;86.06
37904;BME280;23738;50.422;18.758;2023-04-02T05:58:15;97768.50;;;5.39;86.28
37904;BME280;23738;50.422;18.758;2023-04-02T06:01:00;97775.07;;;5.44;86.41
37904;BME280;23738;50.422;18.758;2023-04-02T06:03:38;97780.85;;;5.47;86.50
37904;BME280;23738;50.422;18.758;2023-04-02T06:06:15;97786.81;;;5.46;86.11
37904;BME280;23738;50.422;18.758;2023-04-02T06:08:50;97784.63;;;5.41;86.20
37904;BME280;23738;50.422;18.758;2023-04-02T06:11:24;97790.40;;;5.33;86.19
37904;BME280;23738;50.422;18.758;2023-04-02T06:13:53;97792.95;;;5.28;86.27
37904;BME280;23738;50.422;18.758;2023-04-02T06:16:23;97797.77;;;5.26;85.89
37904;BME280;23738;50.422;18.758;2023-04-02T06:18:51;97801.15;;;5.27;86.27
37904;BME280;23738;50.422;18.758;2023-04-02T06:21:20;97803.85;;;5.27;86.40
37904;BME280;23738;50.422;18.758;2023-04-02T06:23:51;97807.52;;;5.30;86.52
37904;BME280;23738;50.422;18.758;2023-04-02T06:26:23;97813.17;;;5.31;86.53
37904;BME280;23738;50.422;18.758;2023-04-02T06:28:54;97817.60;;;5.28;86.33
37904;BME280;23738;50.422;18.758;2023-04-02T06:31:29;97825.17;;;5.27;86.54
37904;BME280;23738;50.422;18.758;2023-04-02T06:33:59;97829.56;;;5.28;86.38
37904;BME280;23738;50.422;18.758;2023-04-02T06:36:27;97834.16;;;5.31;86.37
37904;BME280;23738;50.422;18.758;2023-04-02T06:38:56;97839.15;;;5.33;86.53
37904;BME280;23738;50.422;18.758;2023-04-02T06:41:25;97843.44;;;5.31;86.64
37904;BME280;23738;50.422;18.758;2023-04-02T06:43:54;97848.65;;;5.29;86.44
37904;BME280;23738;50.422;18.758;2023-04-02T06:46:29;97855.49;;;5.29;86.49
37904;BME280;23738;50.422;18.758;2023-04-02T06:49:05;97861.42;;;5.32;86.44
37904;BME280;23738;50.422;18.758;2023-04-02T06:51:40;97868.09;;;5.29;86.23
37904;BME280;23738;50.422;18.758;2023-04-02T06:54:12;97874.17;;;5.25;86.19
37904;BME280;23738;50.422;18.758;2023-04-02T06:56:42;97882.96;;;5.20;86.29
37904;BME280;23738;50.422;18.758;2023-04-02T06:59:11;97881.79;;;5.14;86.12
37904;BME280;23738;50.422;18.758;2023-04-02T07:01:42;97886.16;;;5.08;86.25
37904;BME280;23738;50.422;18.758;2023-04-02T07:04:12;97887.02;;;5.01;86.38
37904;BME280;23738;50.422;18.758;2023-04-02T07:06:39;97896.14;;;4.97;86.51
37904;BME280;23738;50.422;18.758;2023-04-02T07:09:07;97901.89;;;4.91;86.46
37904;BME280;23738;50.422;18.758;2023-04-02T07:11:35;97908.72;;;4.82;86.41
37904;BME280;23738;50.422;18.758;2023-04-02T07:14:03;97910.23;;;4.69;86.10
37904;BME280;23738;50.422;18.758;2023-04-02T07:16:31;97920.64;;;4.58;86.14
37904;BME280;23738;50.422;18.758;2023-04-02T07:18:59;97928.35;;;4.47;86.24
37904;BME280;23738;50.422;18.758;2023-04-02T07:21:28;97930.55;;;4.37;86.11
37904;BME280;23738;50.422;18.758;2023-04-02T07:23:56;97935.98;;;4.32;86.57
37904;BME280;23738;50.422;18.758;2023-04-02T07:26:24;97946.52;;;4.25;86.39
37904;BME280;23738;50.422;18.758;2023-04-02T07:28:53;97951.99;;;4.17;86.76
37904;BME280;23738;50.422;18.758;2023-04-02T07:31:22;97958.40;;;4.10;86.43
37904;BME280;23738;50.422;18.758;2023-04-02T07:33:50;97962.02;;;4.10;86.77
37904;BME280;23738;50.422;18.758;2023-04-02T07:36:20;97965.07;;;4.15;86.71
37904;BME280;23738;50.422;18.758;2023-04-02T07:38:48;97965.63;;;4.24;86.64
37904;BME280;23738;50.422;18.758;2023-04-02T07:41:16;97971.77;;;4.32;86.88
37904;BME280;23738;50.422;18.758;2023-04-02T07:43:43;97978.77;;;4.34;86.66
37904;BME280;23738;50.422;18.758;2023-04-02T07:46:11;97980.29;;;4.33;86.70
37904;BME280;23738;50.422;18.758;2023-04-02T07:48:42;97986.96;;;4.31;86.67
37904;BME280;23738;50.422;18.758;2023-04-02T07:51:15;97985.88;;;4.38;86.79
37904;BME280;23738;50.422;18.758;2023-04-02T07:53:43;97993.04;;;4.44;87.07
37904;BME280;23738;50.422;18.758;2023-04-02T07:56:13;97998.45;;;4.47;86.65
37904;BME280;23738;50.422;18.758;2023-04-02T07:58:41;98006.90;;;4.44;86.80
37904;BME280;23738;50.422;18.758;2023-04-02T08:01:16;98009.73;;;4.48;86.76
37904;BME280;23738;50.422;18.758;2023-04-02T08:03:44;98014.10;;;4.47;86.53
37904;BME280;23738;50.422;18.758;2023-04-02T08:06:12;98016.78;;;4.46;86.58
37904;BME280;23738;50.422;18.758;2023-04-02T08:08:40;98018.54;;;4.54;86.95
37904;BME280;23738;50.422;18.758;2023-04-02T08:11:08;98022.10;;;4.59;86.98
37904;BME280;23738;50.422;18.758;2023-04-02T08:13:35;98024.45;;;4.57;86.88
37904;BME280;23738;50.422;18.758;2023-04-02T08:16:05;98029.77;;;4.50;86.68
37904;BME280;23738;50.422;18.758;2023-04-02T08:18:33;98033.42;;;4.47;86.49
37904;BME280;23738;50.422;18.758;2023-04-02T08:21:00;98039.37;;;4.42;86.63
37904;BME280;23738;50.422;18.758;2023-04-02T08:23:28;98042.21;;;4.44;86.87
37904;BME280;23738;50.422;18.758;2023-04-02T08:25:55;98043.08;;;4.45;87.04
37904;BME280;23738;50.422;18.758;2023-04-02T08:28:23;98049.89;;;4.45;86.97
37904;BME280;23738;50.422;18.758;2023-04-02T08:30:50;98056.82;;;4.44;86.71
37904;BME280;23738;50.422;18.758;2023-04-02T08:33:18;98058.30;;;4.40;86.75
37904;BME280;23738;50.422;18.758;2023-04-02T08:35:46;98061.40;;;4.38;86.54
37904;BME280;23738;50.422;18.758;2023-04-02T08:38:15;98062.69;;;4.32;86.81
37904;BME280;23738;50.422;18.758;2023-04-02T08:40:45;98065.00;;;4.27;86.77
37904;BME280;23738;50.422;18.758;2023-04-02T08:43:22;98068.20;;;4.28;86.82
37904;BME280;23738;50.422;18.758;2023-04-02T08:46:02;98072.23;;;4.27;87.40
37904;BME280;23738;50.422;18.758;2023-04-02T08:48:34;98069.17;;;4.10;87.01
37904;BME280;23738;50.422;18.758;2023-04-02T08:51:04;98076.14;;;4.07;86.99
37904;BME280;23738;50.422;18.758;2023-04-02T08:53:35;98081.66;;;4.00;87.76
37904;BME280;23738;50.422;18.758;2023-04-02T08:56:08;98082.30;;;3.89;87.68
37904;BME280;23738;50.422;18.758;2023-04-02T08:58:47;98088.40;;;3.83;87.57
37904;BME280;23738;50.422;18.758;2023-04-02T09:01:25;98093.09;;;3.84;87.47
37904;BME280;23738;50.422;18.758;2023-04-02T09:03:55;98094.61;;;3.83;88.35
37904;BME280;23738;50.422;18.758;2023-04-02T09:06:24;98097.98;;;3.79;88.06
37904;BME280;23738;50.422;18.758;2023-04-02T09:08:54;98102.16;;;3.78;88.17
37904;BME280;23738;50.422;18.758;2023-04-02T09:11:24;98104.41;;;3.81;88.06
37904;BME280;23738;50.422;18.758;2023-04-02T09:13:57;98103.95;;;3.82;88.87
37904;BME280;23738;50.422;18.758;2023-04-02T09:16:38;98106.31;;;3.75;88.67
37904;BME280;23738;50.422;18.758;2023-04-02T09:19:15;98112.10;;;3.75;88.71
37904;BME280;23738;50.422;18.758;2023-04-02T09:21:44;98117.89;;;3.71;88.89
37904;BME280;23738;50.422;18.758;2023-04-02T09:24:14;98124.81;;;3.73;88.98
37904;BME280;23738;50.422;18.758;2023-04-02T09:26:41;98129.19;;;3.75;88.93
37904;BME280;23738;50.422;18.758;2023-04-02T09:32:29;98131.36;;;3.75;88.83
37904;BME280;23738;50.422;18.758;2023-04-02T09:35:11;98137.10;;;3.77;89.28
37904;BME280;23738;50.422;18.758;2023-04-02T09:37:39;98140.11;;;3.81;88.84
37904;BME280;23738;50.422;18.758;2023-04-02T09:40:20;98147.19;;;3.90;89.43
37904;BME280;23738;50.422;18.758;2023-04-02T09:42:49;98153.19;;;3.94;89.47
37904;BME280;23738;50.422;18.758;2023-04-02T09:45:28;98151.80;;;3.97;89.28
37904;BME280;23738;50.422;18.758;2023-04-02T09:47:56;98156.70;;;3.99;89.36
37904;BME280;23738;50.422;18.758;2023-04-02T09:50:28;98160.08;;;4.01;89.06
37904;BME280;23738;50.422;18.758;2023-04-02T09:52:55;98163.81;;;4.02;89.02
37904;BME280;23738;50.422;18.758;2023-04-02T09:55:25;98170.80;;;4.02;89.10
37904;BME280;23738;50.422;18.758;2023-04-02T09:58:12;98170.05;;;4.01;89.41
37904;BME280;23738;50.422;18.758;2023-04-02T10:00:49;98175.64;;;4.02;89.12
37904;BME280;23738;50.422;18.758;2023-04-02T10:03:23;98181.27;;;4.03;89.24
37904;BME280;23738;50.422;18.758;2023-04-02T10:06:06;98179.49;;;4.02;89.08
37904;BME280;23738;50.422;18.758;2023-04-02T10:08:34;98179.70;;;3.99;89.11
37904;BME280;23738;50.422;18.758;2023-04-02T10:11:04;98183.26;;;4.00;88.99
37904;BME280;23738;50.422;18.758;2023-04-02T10:13:42;98189.62;;;4.00;89.17
37904;BME280;23738;50.422;18.758;2023-04-02T10:16:14;98193.63;;;3.99;89.28
37904;BME280;23738;50.422;18.758;2023-04-02T10:18:47;98198.98;;;3.98;89.48
37904;BME280;23738;50.422;18.758;2023-04-02T10:21:18;98202.41;;;3.97;89.20
37904;BME280;23738;50.422;18.758;2023-04-02T10:23:47;98206.64;;;3.96;89.43
37904;BME280;23738;50.422;18.758;2023-04-02T10:29:27;98212.23;;;3.99;89.24
37904;BME280;23738;50.422;18.758;2023-04-02T10:32:04;98219.13;;;4.00;89.23
37904;BME280;23738;50.422;18.758;2023-04-02T10:34:43;98218.99;;;3.99;89.33
37904;BME280;23738;50.422;18.758;2023-04-02T10:37:35;98221.42;;;4.03;89.24
37904;BME280;23738;50.422;18.758;2023-04-02T10:40:10;98226.55;;;4.07;89.10
37904;BME280;23738;50.422;18.758;2023-04-02T10:42:47;98227.81;;;4.13;89.09
37904;BME280;23738;50.422;18.758;2023-04-02T10:45:28;98232.06;;;4.22;89.46
37904;BME280;23738;50.422;18.758;2023-04-02T10:48:04;98226.94;;;4.19;89.40
37904;BME280;23738;50.422;18.758;2023-04-02T10:50:41;98236.93;;;4.29;89.25
37904;BME280;23738;50.422;18.758;2023-04-02T10:53:13;98238.61;;;4.35;89.36
37904;BME280;23738;50.422;18.758;2023-04-02T10:55:44;98242.58;;;4.37;88.99
37904;BME280;23738;50.422;18.758;2023-04-02T10:58:19;98241.75;;;4.35;89.09
37904;BME280;23738;50.422;18.758;2023-04-02T11:00:50;98250.34;;;4.27;88.88
37904;BME280;23738;50.422;18.758;2023-04-02T11:03:26;98248.05;;;4.19;88.91
37904;BME280;23738;50.422;18.758;2023-04-02T11:05:57;98254.49;;;4.16;88.99
37904;BME280;23738;50.422;18.758;2023-04-02T11:08:27;98261.59;;;4.11;88.84
37904;BME280;23738;50.422;18.758;2023-04-02T11:11:00;98263.27;;;4.06;89.00
37904;BME280;23738;50.422;18.758;2023-04-02T11:13:34;98267.88;;;3.97;89.04
37904;BME280;23738;50.422;18.758;2023-04-02T11:16:03;98271.23;;;3.95;89.21
37904;BME280;23738;50.422;18.758;2023-04-02T11:18:31;98278.46;;;3.94;89.11
37904;BME280;23738;50.422;18.758;2023-04-02T11:21:06;98279.19;;;3.91;89.48
37904;BME280;23738;50.422;18.758;2023-04-02T11:23:37;98283.49;;;3.88;89.33
37904;BME280;23738;50.422;18.758;2023-04-02T11:29:14;98292.52;;;3.90;89.31
37904;BME280;23738;50.422;18.758;2023-04-02T11:31:44;98300.83;;;3.92;89.33
37904;BME280;23738;50.422;18.758;2023-04-02T11:37:31;98305.38;;;3.92;89.10
37904;BME280;23738;50.422;18.758;2023-04-02T11:39:59;98307.48;;;3.95;89.23
37904;BME280;23738;50.422;18.758;2023-04-02T11:42:32;98308.65;;;3.97;89.14
37904;BME280;23738;50.422;18.758;2023-04-02T11:45:46;98308.37;;;3.98;89.24
37904;BME280;23738;50.422;18.758;2023-04-02T11:50:49;98314.57;;;4.04;89.13
37904;BME280;23738;50.422;18.758;2023-04-02T11:53:21;98319.75;;;4.07;89.23
37904;BME280;23738;50.422;18.758;2023-04-02T11:56:15;98321.04;;;4.06;89.13
37904;BME280;23738;50.422;18.758;2023-04-02T11:59:04;98323.67;;;4.01;88.87
37904;BME280;23738;50.422;18.758;2023-04-02T12:01:47;98326.02;;;4.01;88.82
37904;BME280;23738;50.422;18.758;2023-04-02T12:04:46;98324.95;;;4.12;89.22
37904;BME280;23738;50.422;18.758;2023-04-02T12:07:48;98325.03;;;4.29;89.55
37904;BME280;23738;50.422;18.758;2023-04-02T12:10:19;98325.79;;;4.40;89.35
37904;BME280;23738;50.422;18.758;2023-04-02T12:12:47;98328.77;;;4.46;89.22
37904;BME280;23738;50.422;18.758;2023-04-02T12:15:39;98330.45;;;4.47;88.81
37904;BME280;23738;50.422;18.758;2023-04-02T12:18:15;98334.16;;;4.38;88.58
37904;BME280;23738;50.422;18.758;2023-04-02T12:20:47;98330.52;;;4.29;88.70
37904;BME280;23738;50.422;18.758;2023-04-02T12:23:20;98337.96;;;4.28;88.77
37904;BME280;23738;50.422;18.758;2023-04-02T12:25:56;98340.58;;;4.27;88.81
37904;BME280;23738;50.422;18.758;2023-04-02T12:28:25;98343.59;;;4.29;88.84
37904;BME280;23738;50.422;18.758;2023-04-02T12:31:03;98342.92;;;4.27;88.63
37904;BME280;23738;50.422;18.758;2023-04-02T12:33:33;98347.67;;;4.20;88.61
37904;BME280;23738;50.422;18.758;2023-04-02T12:36:04;98346.30;;;4.19;88.64
37904;BME280;23738;50.422;18.758;2023-04-02T12:38:35;98344.73;;;4.21;88.46
37904;BME280;23738;50.422;18.758;2023-04-02T12:41:20;98344.61;;;4.19;88.61
37904;BME280;23738;50.422;18.758;2023-04-02T12:43:57;98351.50;;;4.21;88.59
37904;BME280;23738;50.422;18.758;2023-04-02T12:46:25;98350.98;;;4.23;88.37
37904;BME280;23738;50.422;18.758;2023-04-02T12:48:52;98357.35;;;4.29;88.56
37904;BME280;23738;50.422;18.758;2023-04-02T12:51:20;98360.51;;;4.36;88.67
37904;BME280;23738;50.422;18.758;2023-04-02T12:53:50;98363.19;;;4.41;88.63
37904;BME280;23738;50.422;18.758;2023-04-02T12:56:20;98365.88;;;4.43;88.48
37904;BME280;23738;50.422;18.758;2023-04-02T12:58:53;98366.23;;;4.40;88.18
37904;BME280;23738;50.422;18.758;2023-04-02T13:01:21;98370.73;;;4.40;88.13
37904;BME280;23738;50.422;18.758;2023-04-02T13:04:08;98372.28;;;4.36;88.18
37904;BME280;23738;50.422;18.758;2023-04-02T13:06:38;98376.66;;;4.35;88.27
37904;BME280;23738;50.422;18.758;2023-04-02T13:09:32;98383.46;;;4.35;88.30
37904;BME280;23738;50.422;18.758;2023-04-02T13:12:00;98389.38;;;4.39;88.21
37904;BME280;23738;50.422;18.758;2023-04-02T13:14:29;98391.94;;;4.38;88.40
37904;BME280;23738;50.422;18.758;2023-04-02T13:16:57;98394.68;;;4.37;88.19
37904;BME280;23738;50.422;18.758;2023-04-02T13:19:27;98392.29;;;4.35;88.10
37904;BME280;23738;50.422;18.758;2023-04-02T13:21:56;98395.52;;;4.29;87.62
37904;BME280;23738;50.422;18.758;2023-04-02T13:24:25;98398.88;;;4.25;87.62
37904;BME280;23738;50.422;18.758;2023-04-02T13:26:55;98406.57;;;4.22;87.74
37904;BME280;23738;50.422;18.758;2023-04-02T13:29:25;98405.25;;;4.19;87.64
37904;BME280;23738;50.422;18.758;2023-04-02T13:31:54;98406.30;;;4.22;88.04
37904;BME280;23738;50.422;18.758;2023-04-02T13:34:21;98410.88;;;4.25;87.77
37904;BME280;23738;50.422;18.758;2023-04-02T13:36:49;98412.55;;;4.26;87.81
37904;BME280;23738;50.422;18.758;2023-04-02T13:39:16;98410.89;;;4.22;87.56
37904;BME280;23738;50.422;18.758;2023-04-02T13:41:46;98415.55;;;4.19;87.65
37904;BME280;23738;50.422;18.758;2023-04-02T13:44:22;98420.09;;;4.17;87.52